Time;durP1;ratioP1;P1;durP2;ratioP2;P2;SDS_P1;SDS_P2;PMS_P1;PMS_P2;Temp;Humidity;BMP_temperature;BMP_pressure;BME280_temperature;BME280_humidity;BME280_pressure;Samples;Min_cycle;Max_cycle;Signal;HPM_P1;HPM_P2
2023/06/14 00:00:26;;;;;;;2.58;2.38;;;16.30;99.90;;;;;;10422301;28;20277;-84
2023/06/14 00:05:29;;;;;;;4.78;4.30;;;16.50;99.90;;;;;;10413926;28;20669;-84
2023/06/14 00:10:35;;;;;;;4.75;2.63;;;16.60;99.90;;;;;;10424441;28;20243;-84
2023/06/14 00:15:38;;;;;;;5.95;4.95;;;16.70;99.70;;;;;;10397323;28;20743;-84
2023/06/14 00:20:42;;;;;;;2.92;2.67;;;16.80;99.60;;;;;;10414988;28;20231;-84
2023/06/14 00:25:45;;;;;;;10.25;6.38;;;16.80;99.70;;;;;;10412955;28;20266;-84
2023/06/14 00:30:47;;;;;;;3.50;3.20;;;16.60;99.90;;;;;;10428320;28;20285;-84
2023/06/14 00:35:50;;;;;;;4.75;4.30;;;16.60;99.90;;;;;;10402165;28;20262;-84
2023/06/14 00:40:55;;;;;;;2.92;2.53;;;16.50;99.90;;;;;;10395985;28;20239;-84
2023/06/14 00:45:58;;;;;;;5.43;3.90;;;16.50;99.90;;;;;;10413227;28;20633;-84
2023/06/14 00:51:03;;;;;;;3.75;2.70;;;16.50;99.90;;;;;;10408084;28;20292;-84
2023/06/14 00:56:07;;;;;;;3.67;2.45;;;16.40;99.90;;;;;;10396680;28;21053;-85
2023/06/14 01:01:10;;;;;;;3.35;3.10;;;16.50;99.90;;;;;;10396762;28;20313;-85
2023/06/14 01:06:35;;;;;;;4.50;2.90;;;16.30;99.90;;;;;;10430611;28;20264;-85
2023/06/14 01:11:47;;;;;;;4.03;3.65;;;16.30;99.90;;;;;;10436158;28;20246;-85
2023/06/14 01:16:52;;;;;;;10.18;3.83;;;15.90;99.90;;;;;;10453121;28;20253;-84
2023/06/14 01:21:56;;;;;;;2.35;2.15;;;15.50;99.90;;;;;;10427479;28;20227;-85
2023/06/14 01:26:59;;;;;;;6.43;3.45;;;15.60;99.90;;;;;;10393307;28;20271;-84
2023/06/14 01:32:03;;;;;;;4.45;3.58;;;15.50;99.90;;;;;;10412604;28;20597;-85
2023/06/14 01:37:08;;;;;;;4.68;3.65;;;15.60;99.90;;;;;;10411974;28;20636;-85
2023/06/14 01:42:12;;;;;;;4.70;4.10;;;15.40;99.90;;;;;;10410885;28;20690;-85
2023/06/14 01:47:16;;;;;;;4.07;3.72;;;15.30;99.90;;;;;;10415324;28;20793;-84
2023/06/14 01:52:19;;;;;;;7.07;4.07;;;15.30;99.90;;;;;;10409685;28;20305;-84
2023/06/14 01:57:22;;;;;;;5.97;4.40;;;15.30;99.90;;;;;;10429944;28;20665;-84
2023/06/14 02:02:25;;;;;;;5.50;4.45;;;15.40;99.90;;;;;;10414184;28;20211;-84
2023/06/14 02:07:28;;;;;;;4.40;4.00;;;15.50;99.90;;;;;;10393783;28;20203;-85
2023/06/14 02:12:31;;;;;;;3.30;3.00;;;15.40;99.90;;;;;;10391924;28;20312;-85
2023/06/14 02:17:34;;;;;;;6.00;4.72;;;15.30;99.90;;;;;;10419700;28;20207;-85
2023/06/14 02:22:41;;;;;;;5.55;4.13;;;15.40;99.90;;;;;;10426119;28;20695;-85
2023/06/14 02:27:44;;;;;;;3.45;2.90;;;15.30;99.90;;;;;;10395842;28;20673;-84
2023/06/14 02:32:48;;;;;;;6.07;3.35;;;15.40;99.90;;;;;;10352248;28;20321;-84
2023/06/14 02:37:51;;;;;;;5.25;3.00;;;15.30;99.90;;;;;;10403025;28;20293;-84
2023/06/14 02:42:53;;;;;;;5.20;3.30;;;15.40;99.90;;;;;;10435556;28;20297;-84
2023/06/14 02:47:56;;;;;;;4.05;3.65;;;15.50;99.90;;;;;;10392166;28;20975;-84
2023/06/14 02:52:59;;;;;;;3.00;2.78;;;15.40;99.90;;;;;;10391186;28;20293;-84
2023/06/14 02:58:02;;;;;;;3.60;3.30;;;15.40;99.90;;;;;;10389912;28;20713;-85
2023/06/14 03:03:13;;;;;;;4.20;3.45;;;15.50;99.90;;;;;;10382771;28;20220;-84
2023/06/14 03:08:26;;;;;;;6.45;3.95;;;15.40;99.90;;;;;;10390633;28;20247;-84
2023/06/14 03:13:32;;;;;;;5.25;3.35;;;15.30;99.90;;;;;;10374901;28;20262;-84
2023/06/14 03:18:36;;;;;;;3.75;3.35;;;15.30;99.90;;;;;;10416890;28;20226;-84
2023/06/14 03:23:40;;;;;;;6.82;3.95;;;15.20;99.90;;;;;;10407050;28;20219;-83
2023/06/14 03:28:45;;;;;;;2.97;2.67;;;15.20;99.90;;;;;;10390356;28;20277;-83
2023/06/14 03:33:49;;;;;;;2.97;2.70;;;15.10;99.90;;;;;;10391080;28;20305;-83
2023/06/14 03:38:55;;;;;;;4.72;2.13;;;15.20;99.90;;;;;;10424433;28;20208;-84
2023/06/14 03:43:58;;;;;;;6.32;4.07;;;15.40;99.90;;;;;;10391494;28;20265;-83
2023/06/14 03:49:02;;;;;;;3.10;2.80;;;15.40;99.90;;;;;;10422756;28;20680;-83
2023/06/14 03:54:04;;;;;;;8.63;4.13;;;15.50;99.90;;;;;;10390101;28;20716;-84
2023/06/14 03:59:29;;;;;;;3.90;3.03;;;15.40;99.90;;;;;;10412380;28;20210;-84
2023/06/14 04:04:35;;;;;;;3.25;2.95;;;15.30;99.90;;;;;;10389537;28;20604;-84
2023/06/14 04:09:40;;;;;;;6.65;3.92;;;15.40;99.90;;;;;;10413644;28;20210;-84
2023/06/14 04:14:43;;;;;;;5.00;4.40;;;15.30;99.90;;;;;;10421735;28;20293;-84
2023/06/14 04:19:47;;;;;;;5.30;3.55;;;15.40;99.90;;;;;;10388915;28;20997;-84
2023/06/14 04:24:50;;;;;;;4.30;3.90;;;15.60;99.90;;;;;;10428130;28;20299;-84
2023/06/14 04:30:07;;;;;;;6.45;4.05;;;15.70;99.90;;;;;;10389225;28;20765;-84
2023/06/14 04:35:15;;;;;;;4.85;4.38;;;15.70;99.90;;;;;;10383531;28;20322;-84
2023/06/14 04:40:20;;;;;;;4.75;4.35;;;15.80;99.90;;;;;;10378781;28;20297;-84
2023/06/14 04:45:23;;;;;;;5.57;4.10;;;15.80;99.90;;;;;;10446365;28;20276;-84
2023/06/14 04:50:26;;;;;;;3.40;3.10;;;15.90;99.90;;;;;;10423272;28;20244;-85
2023/06/14 04:55:29;;;;;;;4.18;3.58;;;16.10;99.90;;;;;;10378072;28;20270;-84
2023/06/14 05:00:32;;;;;;;3.25;2.92;;;16.30;99.90;;;;;;10384115;28;20234;-85
2023/06/14 05:05:35;;;;;;;7.13;4.03;;;16.50;99.90;;;;;;10436887;28;20242;-84
2023/06/14 05:10:38;;;;;;;3.30;3.00;;;16.50;99.90;;;;;;10439038;28;20322;-85
2023/06/14 05:15:41;;;;;;;8.63;4.88;;;16.40;99.90;;;;;;10431867;28;20325;-85
2023/06/14 05:20:44;;;;;;;6.15;4.15;;;16.80;99.90;;;;;;10436069;28;20288;-84
2023/06/14 05:25:46;;;;;;;13.02;4.15;;;16.60;99.90;;;;;;10433979;28;20312;-84
2023/06/14 05:30:49;;;;;;;4.53;3.80;;;16.70;99.90;;;;;;10437625;28;20241;-83
2023/06/14 05:35:52;;;;;;;5.20;4.22;;;16.60;99.90;;;;;;10437354;28;20299;-84
2023/06/14 05:40:55;;;;;;;3.60;3.20;;;16.70;99.90;;;;;;10452787;28;20620;-83
2023/06/14 05:45:57;;;;;;;8.02;4.20;;;16.80;99.90;;;;;;10446290;28;20297;-83
2023/06/14 05:51:00;;;;;;;6.50;4.90;;;16.90;99.90;;;;;;10429133;28;20238;-83
2023/06/14 05:56:06;;;;;;;9.07;3.72;;;17.00;99.90;;;;;;10420715;28;20243;-92
2023/06/14 06:01:09;;;;;;;6.75;4.93;;;17.00;99.90;;;;;;10393957;28;20227;-92
2023/06/14 06:06:12;;;;;;;5.43;4.95;;;17.20;99.90;;;;;;10412762;28;20230;-92
2023/06/14 06:11:15;;;;;;;9.18;5.40;;;17.00;99.90;;;;;;10413567;28;20227;-91
2023/06/14 06:16:17;;;;;;;5.63;4.60;;;17.00;99.90;;;;;;10414016;28;20227;-92
2023/06/14 06:21:20;;;;;;;5.75;4.30;;;16.80;99.90;;;;;;10404223;28;20223;-85
2023/06/14 06:26:23;;;;;;;5.22;4.72;;;16.80;99.90;;;;;;10411393;28;20722;-85
2023/06/14 06:31:27;;;;;;;6.65;4.57;;;17.20;99.90;;;;;;10371052;28;20254;-85
2023/06/14 06:36:31;;;;;;;5.50;4.97;;;17.40;99.90;;;;;;10368991;28;20910;-85
2023/06/14 06:41:34;;;;;;;8.48;5.30;;;17.40;99.90;;;;;;10398562;28;20860;-85
2023/06/14 06:46:40;;;;;;;6.05;4.85;;;17.60;99.90;;;;;;10415378;28;20238;-86
2023/06/14 06:51:44;;;;;;;6.07;4.63;;;17.60;99.90;;;;;;10417021;28;20697;-86
2023/06/14 06:56:46;;;;;;;4.85;4.43;;;17.70;99.90;;;;;;10435023;28;20690;-86
2023/06/14 07:01:49;;;;;;;6.55;4.53;;;17.70;99.90;;;;;;10433364;28;20223;-86
2023/06/14 07:06:54;;;;;;;7.53;4.75;;;17.70;99.90;;;;;;10423077;28;20207;-85
2023/06/14 07:11:57;;;;;;;5.03;4.57;;;17.50;99.90;;;;;;10411332;28;20234;-85
2023/06/14 07:16:59;;;;;;;5.82;5.20;;;17.80;99.90;;;;;;10425201;28;21749;-86
2023/06/14 07:22:02;;;;;;;5.35;3.33;;;17.70;99.90;;;;;;10406214;28;20199;-86
2023/06/14 07:27:08;;;;;;;4.72;4.18;;;18.10;99.90;;;;;;10437940;28;20234;-86
2023/06/14 07:32:10;;;;;;;6.13;4.60;;;18.40;99.90;;;;;;10447366;28;20269;-86
2023/06/14 07:37:15;;;;;;;7.93;4.97;;;18.30;99.90;;;;;;10409266;28;20317;-86
2023/06/14 07:42:17;;;;;;;7.22;4.90;;;18.40;99.90;;;;;;10422395;28;20211;-86
2023/06/14 07:47:20;;;;;;;6.65;5.10;;;18.40;99.90;;;;;;10408900;28;20562;-86
2023/06/14 07:52:23;;;;;;;9.10;5.80;;;18.60;99.90;;;;;;10400899;28;20636;-86
2023/06/14 07:57:25;;;;;;;4.10;3.53;;;18.80;99.90;;;;;;10407908;28;20246;-86
2023/06/14 08:02:28;;;;;;;7.45;5.13;;;19.00;99.90;;;;;;10410088;28;21279;-86
2023/06/14 08:07:31;;;;;;;4.80;4.40;;;19.30;99.90;;;;;;10399073;28;20199;-86
2023/06/14 08:12:34;;;;;;;4.60;4.20;;;19.50;99.90;;;;;;10395605;28;20561;-85
2023/06/14 08:17:37;;;;;;;6.10;3.50;;;19.70;99.90;;;;;;10399382;28;20301;-86
2023/06/14 08:22:42;;;;;;;4.82;3.80;;;19.70;99.90;;;;;;10394274;28;20204;-86
2023/06/14 08:27:45;;;;;;;6.20;4.45;;;19.80;99.90;;;;;;10417318;28;20606;-86
2023/06/14 08:32:48;;;;;;;7.88;4.30;;;20.20;99.50;;;;;;10413734;28;20211;-86
2023/06/14 08:38:03;;;;;;;11.13;4.90;;;20.50;97.80;;;;;;10397909;28;20258;-86
2023/06/14 08:43:07;;;;;;;4.28;3.78;;;20.70;97.40;;;;;;10456288;28;20211;-86
2023/06/14 08:48:10;;;;;;;4.97;4.30;;;21.00;99.70;;;;;;10458558;28;20203;-86
2023/06/14 08:53:16;;;;;;;3.63;3.20;;;21.10;98.20;;;;;;10437873;28;20931;-86
2023/06/14 08:58:19;;;;;;;4.63;3.78;;;21.20;99.20;;;;;;10407267;28;20335;-86
2023/06/14 09:03:23;;;;;;;6.78;3.80;;;21.60;95.40;;;;;;10443892;28;20242;-86
2023/06/14 09:08:32;;;;;;;4.70;2.80;;;22.00;92.50;;;;;;10441569;28;20234;-86
2023/06/14 09:13:35;;;;;;;3.78;3.10;;;22.00;93.90;;;;;;10415128;28;20204;-86
2023/06/14 09:18:47;;;;;;;3.53;3.22;;;22.30;96.90;;;;;;10445830;28;20207;-86
2023/06/14 09:23:50;;;;;;;7.50;3.35;;;22.50;93.20;;;;;;10457685;28;20199;-86
2023/06/14 09:28:53;;;;;;;4.53;3.22;;;22.40;82.30;;;;;;10416472;28;20564;-86
2023/06/14 09:33:56;;;;;;;3.97;3.42;;;22.40;80.70;;;;;;10438196;28;20240;-86
2023/06/14 09:39:07;;;;;;;3.95;2.70;;;22.50;87.40;;;;;;10424170;28;20234;-86
2023/06/14 09:44:14;;;;;;;4.80;3.42;;;23.10;95.00;;;;;;10415140;28;20207;-86
2023/06/14 09:49:22;;;;;;;4.07;3.72;;;23.10;94.60;;;;;;10411960;28;20920;-86
2023/06/14 09:54:26;;;;;;;4.22;3.35;;;23.20;80.80;;;;;;10409945;28;20224;-86
2023/06/14 09:59:32;;;;;;;2.92;2.65;;;23.60;79.20;;;;;;10418075;28;20200;-86
2023/06/14 10:04:37;;;;;;;2.67;2.47;;;23.40;92.00;;;;;;10415349;28;20205;-86
2023/06/14 10:09:44;;;;;;;3.50;3.05;;;23.80;88.60;;;;;;10395471;28;20242;-86
2023/06/14 10:14:49;;;;;;;3.13;2.85;;;24.20;87.70;;;;;;10398150;28;20242;-86
2023/06/14 10:20:03;;;;;;;4.13;3.70;;;24.60;85.30;;;;;;10427030;28;20689;-86
2023/06/14 10:25:13;;;;;;;3.97;3.05;;;24.70;67.30;;;;;;10455780;28;20231;-86
2023/06/14 10:30:15;;;;;;;3.40;2.65;;;24.70;67.00;;;;;;10421614;28;20195;-86
2023/06/14 10:35:18;;;;;;;6.28;3.60;;;24.50;78.30;;;;;;10459725;28;20219;-85
2023/06/14 10:40:31;;;;;;;3.00;2.65;;;24.20;62.40;;;;;;10447501;28;20211;-85
2023/06/14 10:45:33;;;;;;;4.45;3.30;;;24.30;68.00;;;;;;10456074;28;20322;-85
2023/06/14 10:50:36;;;;;;;7.07;3.22;;;24.20;58.60;;;;;;10432972;28;20195;-85
2023/06/14 10:55:38;;;;;;;4.72;3.58;;;24.00;65.30;;;;;;10449806;28;20207;-85
2023/06/14 11:00:45;;;;;;;4.30;3.53;;;23.90;52.90;;;;;;10483487;28;20261;-84
2023/06/14 11:05:47;;;;;;;3.25;2.67;;;24.00;55.10;;;;;;10474766;28;20217;-85
2023/06/14 11:10:51;;;;;;;5.10;3.15;;;24.10;62.20;;;;;;10497416;28;20214;-86
2023/06/14 11:15:56;;;;;;;4.20;3.78;;;;;;;;;;10480640;28;20215;-84
2023/06/14 11:20:58;;;;;;;4.75;4.07;;;24.90;68.30;;;;;;10450280;28;20223;-85
2023/06/14 11:26:01;;;;;;;7.78;4.65;;;24.50;62.00;;;;;;10449184;28;20262;-85
2023/06/14 11:31:04;;;;;;;4.68;3.55;;;24.10;51.20;;;;;;10442460;28;20200;-85
2023/06/14 11:36:08;;;;;;;7.93;3.50;;;23.50;61.00;;;;;;10468829;28;20207;-84
2023/06/14 11:41:11;;;;;;;6.50;3.85;;;23.20;56.90;;;;;;10445217;28;20226;-85
2023/06/14 11:46:15;;;;;;;6.78;3.20;;;23.00;57.70;;;;;;10461084;28;20218;-85
2023/06/14 11:51:19;;;;;;;3.40;3.10;;;23.20;66.50;;;;;;10461093;28;20200;-84
2023/06/14 11:56:22;;;;;;;6.78;3.13;;;23.10;58.00;;;;;;10443596;28;20233;-85
2023/06/14 12:01:25;;;;;;;3.15;2.92;;;23.00;53.70;;;;;;10471101;28;20209;-85
2023/06/14 12:06:35;;;;;;;4.80;3.10;;;22.90;60.90;;;;;;10468321;28;20176;-85
2023/06/14 12:11:39;;;;;;;2.20;2.00;;;23.10;72.50;;;;;;10465466;28;20218;-84
2023/06/14 12:16:42;;;;;;;3.22;2.95;;;23.30;81.60;;;;;;10462304;28;20222;-84
2023/06/14 12:21:52;;;;;;;3.45;2.92;;;23.20;61.70;;;;;;10493253;28;20228;-84
2023/06/14 12:26:54;;;;;;;4.00;3.22;;;23.40;64.10;;;;;;10466899;28;20522;-84
2023/06/14 12:31:57;;;;;;;4.50;3.10;;;23.50;53.30;;;;;;10481558;28;20199;-84
2023/06/14 12:37:00;;;;;;;4.72;3.58;;;23.70;54.00;;;;;;10459638;28;20322;-84
2023/06/14 12:42:04;;;;;;;4.30;3.90;;;23.80;51.20;;;;;;10422262;28;20203;-83
2023/06/14 12:47:07;;;;;;;4.35;3.17;;;23.90;49.20;;;;;;10448561;28;20549;-84
2023/06/14 12:52:10;;;;;;;4.22;3.20;;;23.90;56.70;;;;;;10473390;28;20629;-84
2023/06/14 12:57:12;;;;;;;3.70;3.17;;;23.90;51.00;;;;;;10479189;28;20219;-86
2023/06/14 13:02:17;;;;;;;4.30;2.53;;;24.00;51.00;;;;;;10434136;28;20199;-84
2023/06/14 13:07:20;;;;;;;4.78;3.08;;;24.00;59.70;;;;;;10448163;28;20619;-84
2023/06/14 13:12:22;;;;;;;3.85;2.45;;;24.00;42.20;;;;;;10459442;28;20241;-85
2023/06/14 13:17:26;;;;;;;7.63;3.10;;;24.10;58.30;;;;;;10471544;28;20223;-83
2023/06/14 13:22:28;;;;;;;4.72;3.22;;;24.20;43.30;;;;;;10443679;28;20198;-85
2023/06/14 13:27:31;;;;;;;3.17;2.97;;;24.20;49.10;;;;;;10440119;28;20232;-83
2023/06/14 13:32:34;;;;;;;2.95;2.67;;;24.60;68.60;;;;;;10434656;28;20195;-84
2023/06/14 13:37:37;;;;;;;2.95;2.50;;;24.70;60.00;;;;;;10392963;28;20271;-85
2023/06/14 13:42:39;;;;;;;4.05;2.90;;;24.70;61.40;;;;;;10424854;28;20262;-84
2023/06/14 13:47:42;;;;;;;3.05;2.67;;;24.60;55.30;;;;;;10400648;28;20574;-85
2023/06/14 13:52:45;;;;;;;5.30;3.63;;;24.40;52.10;;;;;;10412672;28;20207;-83
2023/06/14 13:57:47;;;;;;;3.28;2.83;;;24.00;42.50;;;;;;10437021;28;20237;-84
2023/06/14 14:02:50;;;;;;;2.47;2.13;;;23.90;60.80;;;;;;10461853;28;20576;-83
2023/06/14 14:07:53;;;;;;;2.60;2.40;;;23.80;43.30;;;;;;10437347;28;20590;-84
2023/06/14 14:12:56;;;;;;;9.48;2.10;;;23.60;39.10;;;;;;10442741;28;20273;-84
2023/06/14 14:17:59;;;;;;;4.32;2.10;;;23.50;34.40;;;;;;10463727;28;20226;-84
2023/06/14 14:23:02;;;;;;;5.57;2.20;;;23.30;43.30;;;;;;10455587;28;20544;-84
2023/06/14 14:28:04;;;;;;;3.17;2.63;;;23.10;40.80;;;;;;10443609;28;20685;-83
2023/06/14 14:33:07;;;;;;;4.75;2.67;;;23.00;39.30;;;;;;10416835;28;20254;-84
2023/06/14 14:38:10;;;;;;;4.75;2.50;;;22.80;37.80;;;;;;10417460;28;20266;-82
2023/06/14 14:43:12;;;;;;;5.82;4.20;;;23.00;59.00;;;;;;10422406;28;20204;-84
2023/06/14 14:48:15;;;;;;;11.40;5.45;;;23.10;35.40;;;;;;10413031;28;20576;-84
2023/06/14 14:53:18;;;;;;;6.10;4.57;;;23.30;35.70;;;;;;10412968;28;20281;-84
2023/06/14 14:58:20;;;;;;;5.35;3.88;;;23.40;41.50;;;;;;10391841;28;20232;-84
2023/06/14 15:03:23;;;;;;;6.50;4.82;;;23.40;44.90;;;;;;10441445;28;20195;-84
2023/06/14 15:08:26;;;;;;;5.32;3.90;;;23.40;50.60;;;;;;10482161;28;20229;-86
2023/06/14 15:13:28;;;;;;;9.40;5.30;;;23.80;46.40;;;;;;10446312;28;20211;-84
2023/06/14 15:18:31;;;;;;;5.53;4.90;;;23.90;37.80;;;;;;10447450;28;20602;-84
2023/06/14 15:23:33;;;;;;;8.60;3.50;;;23.60;45.40;;;;;;10394214;28;20631;-84
2023/06/14 15:28:36;;;;;;;6.45;3.15;;;23.50;39.30;;;;;;10411741;28;20577;-84
2023/06/14 15:33:38;;;;;;;3.22;2.85;;;23.40;40.40;;;;;;10425127;28;20202;-84
2023/06/14 15:38:41;;;;;;;3.58;3.25;;;23.20;35.50;;;;;;10404827;28;20631;-85
2023/06/14 15:43:44;;;;;;;4.80;2.70;;;23.10;46.60;;;;;;10426249;28;20597;-85
2023/06/14 15:48:46;;;;;;;3.58;3.28;;;23.00;40.00;;;;;;10394208;28;20191;-85
2023/06/14 15:53:49;;;;;;;6.85;3.17;;;22.60;48.90;;;;;;10409888;28;20227;-85
2023/06/14 15:58:51;;;;;;;7.85;3.00;;;22.10;42.10;;;;;;10399406;28;20290;-85
2023/06/14 16:03:56;;;;;;;7.32;3.65;;;21.70;57.40;;;;;;10411976;28;20196;-84
2023/06/14 16:08:58;;;;;;;3.20;2.75;;;21.30;59.60;;;;;;10409985;28;20207;-85
2023/06/14 16:14:01;;;;;;;5.05;3.13;;;20.60;61.90;;;;;;10060603;28;10000239;-84
2023/06/14 16:19:04;;;;;;;2.95;2.75;;;20.30;67.00;;;;;;10411371;28;20219;-84
2023/06/14 16:24:08;;;;;;;4.63;3.00;;;19.90;70.70;;;;;;10406546;28;20259;-84
2023/06/14 16:29:10;;;;;;;4.20;3.80;;;20.00;71.90;;;;;;10406971;28;20208;-84
2023/06/14 16:34:15;;;;;;;4.53;3.42;;;20.00;83.00;;;;;;10417850;28;20285;-84
2023/06/14 16:39:18;;;;;;;4.65;3.80;;;19.90;73.80;;;;;;10430232;28;20303;-84
2023/06/14 16:44:20;;;;;;;6.88;3.60;;;19.80;86.80;;;;;;10451952;28;20763;-85
2023/06/14 16:49:23;;;;;;;4.00;3.58;;;19.50;85.00;;;;;;10456604;28;20245;-84
2023/06/14 16:54:26;;;;;;;4.30;3.63;;;19.40;93.70;;;;;;10416887;28;20277;-85
2023/06/14 16:59:29;;;;;;;18.42;4.72;;;18.90;93.40;;;;;;10429822;28;20254;-93
2023/06/14 17:04:33;;;;;;;10.73;4.35;;;18.80;95.10;;;;;;10442988;28;20269;-96
2023/06/14 17:09:36;;;;;;;4.55;4.10;;;18.70;95.20;;;;;;10477172;28;20192;-94
2023/06/14 17:14:38;;;;;;;7.65;3.85;;;18.20;95.70;;;;;;10469923;28;20184;-95
2023/06/14 17:19:41;;;;;;;4.53;4.10;;;17.90;96.80;;;;;;10469641;28;20207;-94
2023/06/14 17:24:43;;;;;;;5.25;4.22;;;17.90;96.50;;;;;;10467121;28;20216;-96
2023/06/14 17:29:47;;;;;;;9.35;4.15;;;17.70;97.20;;;;;;10444700;23;20235;-89
2023/06/14 17:34:50;;;;;;;7.60;3.65;;;17.40;96.40;;;;;;10087939;28;10001153;-87
2023/06/14 17:39:52;;;;;;;9.68;4.13;;;17.10;98.20;;;;;;10418628;28;20254;-88
2023/06/14 17:44:55;;;;;;;5.70;3.85;;;17.20;97.70;;;;;;10449182;28;20234;-88
2023/06/14 17:50:00;;;;;;;6.63;4.20;;;17.40;98.10;;;;;;10432692;28;20284;-90
2023/06/14 17:55:03;;;;;;;11.82;4.70;;;17.30;99.70;;;;;;10360560;28;20710;-88
2023/06/14 18:00:06;;;;;;;5.95;4.10;;;17.30;99.70;;;;;;10408378;28;20258;-88
2023/06/14 18:05:15;;;;;;;4.88;4.32;;;17.20;97.50;;;;;;10408122;28;20277;-88
2023/06/14 18:10:18;;;;;;;8.75;4.57;;;17.10;98.00;;;;;;10406205;28;20638;-87
2023/06/14 18:15:21;;;;;;;6.10;3.78;;;17.10;98.70;;;;;;10444854;28;20248;-84
2023/06/14 18:20:24;;;;;;;6.68;4.25;;;17.10;98.20;;;;;;10410615;28;20255;-84
2023/06/14 18:25:26;;;;;;;7.18;4.30;;;17.10;99.00;;;;;;10407434;28;20305;-84
2023/06/14 18:30:29;;;;;;;8.18;4.10;;;17.30;99.90;;;;;;10424325;28;20754;-84
2023/06/14 18:35:32;;;;;;;11.07;4.05;;;17.60;99.90;;;;;;10409850;28;20612;-84
2023/06/14 18:40:36;;;;;;;6.97;4.63;;;17.80;99.90;;;;;;10407678;28;20255;-84
2023/06/14 18:45:39;;;;;;;9.25;4.40;;;17.90;99.90;;;;;;10405613;28;20623;-84
2023/06/14 18:50:42;;;;;;;10.93;4.70;;;17.90;99.90;;;;;;10427920;28;20242;-84
2023/06/14 18:55:46;;;;;;;6.97;4.90;;;17.40;99.90;;;;;;10416463;28;20693;-84
2023/06/14 19:00:50;;;;;;;5.80;4.38;;;17.00;99.90;;;;;;10427340;28;20312;-85
2023/06/14 19:05:55;;;;;;;21.45;4.60;;;16.90;99.90;;;;;;10424446;28;20235;-85
2023/06/14 19:10:57;;;;;;;5.53;4.72;;;16.70;99.90;;;;;;10404963;28;20762;-84
2023/06/14 19:16:00;;;;;;;7.95;4.53;;;16.80;99.90;;;;;;10427373;28;20238;-84
2023/06/14 19:21:02;;;;;;;6.55;5.30;;;16.70;99.90;;;;;;10424771;28;20231;-85
2023/06/14 19:26:06;;;;;;;9.00;5.10;;;16.70;99.90;;;;;;10421017;28;20309;-86
2023/06/14 19:31:10;;;;;;;8.93;5.68;;;16.90;99.90;;;;;;10406344;28;20258;-86
2023/06/14 19:36:16;;;;;;;6.88;5.10;;;16.70;99.90;;;;;;10402024;28;20637;-88
2023/06/14 19:41:19;;;;;;;9.55;5.50;;;16.70;99.90;;;;;;10395031;28;20613;-93
2023/06/14 19:46:22;;;;;;;6.40;5.05;;;16.60;99.90;;;;;;10419829;28;20674;-89
2023/06/14 19:51:25;;;;;;;6.50;5.28;;;16.50;99.90;;;;;;10388041;28;20630;-88
2023/06/14 19:56:28;;;;;;;6.60;5.95;;;16.30;99.90;;;;;;10408403;28;20267;-86
2023/06/14 20:01:30;;;;;;;6.38;5.38;;;16.40;99.90;;;;;;10408214;28;20235;-86
2023/06/14 20:06:33;;;;;;;5.32;4.68;;;16.50;99.90;;;;;;10407567;28;20672;-86
2023/06/14 20:11:39;;;;;;;9.05;5.35;;;16.40;99.90;;;;;;10432026;28;20281;-86
2023/06/14 20:16:42;;;;;;;10.85;5.30;;;16.50;99.90;;;;;;10419534;28;20254;-84
2023/06/14 20:21:44;;;;;;;5.80;4.75;;;16.40;99.90;;;;;;10456201;28;20565;-86
2023/06/14 20:26:48;;;;;;;7.32;4.80;;;16.70;99.90;;;;;;10438958;28;20674;-86
2023/06/14 20:31:51;;;;;;;7.53;5.20;;;16.70;99.90;;;;;;10446945;28;20695;-85
2023/06/14 20:36:53;;;;;;;7.30;4.78;;;16.50;99.90;;;;;;10423021;28;20646;-86
2023/06/14 20:41:56;;;;;;;6.13;5.10;;;16.60;99.90;;;;;;10446061;28;21128;-92
2023/06/14 20:47:12;;;;;;;8.40;5.70;;;16.70;99.90;;;;;;10431258;28;20625;-86
2023/06/14 20:52:15;;;;;;;7.20;5.72;;;16.70;99.90;;;;;;10423648;28;20581;-91
2023/06/14 20:57:21;;;;;;;5.30;4.80;;;16.70;99.90;;;;;;10428431;28;20273;-88
2023/06/14 21:02:24;;;;;;;8.07;5.97;;;16.70;99.90;;;;;;10447703;28;20253;-86
2023/06/14 21:07:26;;;;;;;8.85;6.68;;;16.80;99.90;;;;;;10451098;28;20628;-83
2023/06/14 21:12:29;;;;;;;8.30;5.50;;;16.40;99.90;;;;;;10427335;28;20577;-84
2023/06/14 21:17:31;;;;;;;6.60;5.45;;;16.50;99.90;;;;;;10413956;28;20714;-84
2023/06/14 21:22:36;;;;;;;11.70;6.15;;;16.60;99.90;;;;;;10416378;28;20204;-85
2023/06/14 21:27:38;;;;;;;8.48;6.82;;;16.50;99.90;;;;;;10431835;28;20666;-88
2023/06/14 21:32:43;;;;;;;8.40;5.70;;;16.40;99.90;;;;;;10441192;28;20608;-85
2023/06/14 21:37:46;;;;;;;10.30;6.03;;;16.30;99.90;;;;;;10378801;28;20255;-85
2023/06/14 21:42:48;;;;;;;6.95;6.05;;;16.20;99.90;;;;;;10380215;28;20620;-85
2023/06/14 21:47:51;;;;;;;6.53;5.93;;;15.90;99.90;;;;;;10414048;28;20258;-85
2023/06/14 21:52:53;;;;;;;5.30;4.80;;;15.70;99.90;;;;;;10436968;28;20234;-85
2023/06/14 21:57:56;;;;;;;5.50;4.78;;;15.70;99.90;;;;;;10408227;28;20296;-85
2023/06/14 22:02:59;;;;;;;9.10;5.88;;;16.10;99.90;;;;;;10408908;28;20283;-85
2023/06/14 22:08:02;;;;;;;5.97;5.32;;;16.40;99.90;;;;;;10410144;28;20285;-84
2023/06/14 22:13:05;;;;;;;9.63;5.50;;;16.50;99.90;;;;;;10411156;28;20593;-85
2023/06/14 22:18:08;;;;;;;6.53;5.93;;;16.30;99.90;;;;;;10400786;28;20270;-85
2023/06/14 22:23:11;;;;;;;9.15;6.65;;;16.30;99.90;;;;;;10416066;28;20283;-84
2023/06/14 22:28:13;;;;;;;6.53;5.93;;;16.00;99.90;;;;;;10411219;28;20258;-84
2023/06/14 22:33:16;;;;;;;9.40;7.40;;;15.60;99.90;;;;;;10410203;28;20701;-85
2023/06/14 22:38:19;;;;;;;7.05;5.68;;;15.30;99.90;;;;;;10411064;28;20251;-85
2023/06/14 22:43:22;;;;;;;6.85;6.25;;;15.20;99.90;;;;;;10409520;28;20303;-85
2023/06/14 22:48:24;;;;;;;8.88;6.63;;;15.10;99.90;;;;;;10391197;28;20223;-84
2023/06/14 22:53:27;;;;;;;6.55;5.95;;;14.90;99.90;;;;;;10421938;28;20633;-85
2023/06/14 22:58:30;;;;;;;7.63;6.80;;;14.90;99.90;;;;;;10449380;28;21235;-85
2023/06/14 23:03:32;;;;;;;7.80;6.80;;;14.70;99.90;;;;;;10419359;28;20274;-85
2023/06/14 23:08:36;;;;;;;7.13;6.00;;;14.80;99.90;;;;;;10390987;28;20211;-84
2023/06/14 23:13:44;;;;;;;8.07;6.38;;;15.00;99.90;;;;;;10391736;28;20208;-85
2023/06/14 23:18:47;;;;;;;9.73;7.18;;;15.10;99.90;;;;;;10408031;28;20266;-85
2023/06/14 23:23:52;;;;;;;11.35;7.40;;;15.00;99.90;;;;;;10408680;28;20290;-85
2023/06/14 23:28:56;;;;;;;7.10;6.43;;;14.90;99.90;;;;;;10367456;28;20244;-84
2023/06/14 23:33:58;;;;;;;8.63;7.15;;;14.90;99.90;;;;;;10367469;28;20236;-85
2023/06/14 23:39:03;;;;;;;7.30;5.35;;;14.80;99.90;;;;;;10386918;28;20281;-85
2023/06/14 23:44:06;;;;;;;11.52;6.45;;;14.90;99.90;;;;;;10407633;28;20215;-85
2023/06/14 23:49:09;;;;;;;8.57;6.35;;;14.90;99.90;;;;;;10412303;28;20223;-85
2023/06/14 23:54:12;;;;;;;6.68;5.97;;;15.00;99.90;;;;;;10409638;28;20239;-84
2023/06/14 23:59:15;;;;;;;6.65;6.00;;;15.10;99.90;;;;;;10399132;28;20255;-85
